Arlington, TX (76018)

8:40 AM CDT on April 01, 2015 (GMT -0500)
Arlington Municipal | | Change Station
CLOSE
Current Station
Airport
Location: Arlington,
Elevation: 630 ft
Nearby Weather Stations

Elev 630 ft 32.66 °N, 97.10 °W | Updated 47 minutes ago

Overcast
Overcast
68 °F
Feels Like 68 °F
N
8
Wind Variable Wind from South

Today
High -- | Low -- °F
--% Chance of Precip.
Yesterday
High -- | Low -- °F
Precip. -- in
7:16 AM 7:48 PM
Waxing Gibbous, 92% visible
Pressure 29.90 in
Visibility 5.0 miles
Clouds Scattered Clouds 800 ft
Mostly Cloudy 3800 ft
Overcast 11000 ft
Dew Point 64 °F
Humidity 87%
Rainfall 0.04 in
Snow Depth Not available.
UV 0 out of 12
Pollen 11.60 out of 12
Air Quality Not available.
Flu Activity Not available.
METAR KGKY 011253Z 17007KT 5SM BR SCT008 BKN038 OVC110 20/18 A2992 RMK AO2 LTG DSNT N AND NE RAB18E38 SLP124 P0004 T02000178

More Conditions Fewer Conditions

Pressure 29.90 in
Visibility 5.0 miles
Clouds Scattered Clouds 800 ft
Mostly Cloudy 3800 ft
Overcast 11000 ft
Dew Point 64 °F
Humidity 87%
Rainfall 0.04 in
Snow Depth Not available.
UV 0 out of 12
Pollen 11.60 out of 12
Air Quality Not available.
Flu Activity Not available.
METAR KGKY 011253Z 17007KT 5SM BR SCT008 BKN038 OVC110 20/18 A2992 RMK AO2 LTG DSNT N AND NE RAB18E38 SLP124 P0004 T02000178

More Conditions Fewer Conditions

Nowcast | as of 7:31 am CDT on April 1, 2015

A broken line of thunderstorms extended from Maypearl to Muenster and was moving northeast at 25 mph. These storms will affect Denton...Irving...Dallas...Gainesville...McKinney and Sherman through 830 am. The storms will produce dangerous lightning... small hail and heavy rainfall. Rain amounts will average up to one inch from the storms but less the one quarter of an inch from the showers. Elsewhere...scattered showers and isolated thunderstorms will affect areas west through north of the metroplex through mid morning. Otherwise...it will be a mild and humid morning with mostly cloudy skies.

×

10-Day Weather Forecast

Almanac

Astronomy

Apr. 01, 2015 Rise Set
Actual Time
Civil Twilight
Nautical Twilight
Astronomical Twilight
Moon
Length of Visible Light
Length of Day
Tomorrow will be .
, % of the Moon is Illuminated

Today's Extremes

State Highs State Lows

Community

WunderPhotos

Upload Photos

1,809,954 photos uploaded!

WunderBlogs® & News

Nearby

Air Quality

  Air Quality AQ Index Pollutant
Not available.

Snow Depth

Station Depth Elevation

Earthquake Activity

City Distance Mag. Time & Date
Minimum magnitude displayed is 2.5.

Coastal Water Temperatures

Place Temperature

Stations

Nearby Weather Stations

Station Location Temp. Windchill Dew Point Humidity Wind Precip. Elev Updated Type